Terminal Aerodrome Forecast
Issued by NWS

Home | Current Version | Previous Version | Graphics & Text | Print | Product List | Glossary On
Versions: 1 2 3 4 5 6 7 8 9 10 11 12 13
465
FTUS43 KFGF 182320
TAFBJI
TAF
KBJI 182320Z 1900/1924 27015KT P6SM FEW250
     FM190200 27012KT P6SM FEW250 WS020/28040KT
     FM190700 26007KT P6SM SKC
     FM191200 VRB03KT P6SM SKC
     FM191500 18007KT P6SM FEW200
     FM191800 20011KT P6SM FEW200=

USA.gov is the U.S. government's official web portal to all federal, state and local government web resources and services.